Time;durP1;ratioP1;P1;durP2;ratioP2;P2;SDS_P1;SDS_P2;PMS_P1;PMS_P2;Temp;Humidity;BMP_temperature;BMP_pressure;BME280_temperature;BME280_humidity;BME280_pressure;Samples;Min_cycle;Max_cycle;Signal;HPM_P1;HPM_P2
2023/07/09 00:01:48;;;;;;;15.80;10.55;;;27.40;1.00;;;;;;4883044;29;20247;-88
2023/07/09 00:04:14;;;;;;;14.95;11.07;;;27.30;1.00;;;;;;4883322;29;20206;-87
2023/07/09 00:06:40;;;;;;;15.68;10.63;;;27.30;1.00;;;;;;4882191;29;20186;-90
2023/07/09 00:09:13;;;;;;;15.02;11.25;;;27.40;1.00;;;;;;4881802;29;20609;-90
2023/07/09 00:11:40;;;;;;;18.08;11.10;;;27.40;1.00;;;;;;4880701;29;20651;-84
2023/07/09 00:14:06;;;;;;;15.85;11.13;;;27.40;1.00;;;;;;4880603;29;20179;-84
2023/07/09 00:16:32;;;;;;;11.73;9.80;;;27.40;1.00;;;;;;4880305;29;20182;-84
2023/07/09 00:18:58;;;;;;;15.93;10.02;;;27.40;1.00;;;;;;4881626;29;20206;-92
2023/07/09 00:21:24;;;;;;;15.88;10.30;;;27.40;1.00;;;;;;4881616;29;20175;-87
2023/07/09 00:23:49;;;;;;;16.77;10.38;;;27.40;1.00;;;;;;4880383;29;20185;-84
2023/07/09 00:26:17;;;;;;;11.43;8.73;;;27.40;1.00;;;;;;4883178;29;20225;-90
2023/07/09 00:28:44;;;;;;;14.48;9.50;;;27.40;1.00;;;;;;4881928;29;20222;-93
2023/07/09 00:31:16;;;;;;;10.43;7.53;;;27.40;1.00;;;;;;4883198;29;20167;-90
2023/07/09 00:33:45;;;;;;;11.25;6.80;;;27.30;1.00;;;;;;4882014;29;20203;-94
2023/07/09 00:36:31;;;;;;;9.48;6.10;;;27.30;1.00;;;;;;4884285;29;20636;-92
2023/07/09 00:39:04;;;;;;;9.23;6.40;;;27.30;1.00;;;;;;4883805;29;20559;-95
2023/07/09 00:41:35;;;;;;;8.70;5.60;;;27.30;1.00;;;;;;4870815;29;20186;-87
2023/07/09 00:44:31;;;;;;;6.75;4.75;;;27.30;1.00;;;;;;4885615;29;20199;-92
2023/07/09 00:47:02;;;;;;;8.73;5.32;;;27.30;1.00;;;;;;4885227;29;20199;-92
2023/07/09 00:49:30;;;;;;;11.13;6.82;;;27.40;1.00;;;;;;4888959;29;20274;-93
2023/07/09 00:52:01;;;;;;;11.63;7.75;;;27.50;1.00;;;;;;4890872;29;20178;-91
2023/07/09 00:54:41;;;;;;;11.48;8.68;;;27.60;1.00;;;;;;4888301;29;20179;-91
2023/07/09 00:57:17;;;;;;;7.97;6.07;;;27.50;1.00;;;;;;4889117;29;20183;-91
2023/07/09 00:59:48;;;;;;;11.50;7.95;;;27.50;1.00;;;;;;4882334;29;20190;-94
2023/07/09 01:02:14;;;;;;;10.32;7.72;;;27.40;1.00;;;;;;4880675;29;20171;-91
2023/07/09 01:04:40;;;;;;;9.48;7.38;;;27.30;1.00;;;;;;4884207;29;20167;-94
2023/07/09 01:07:08;;;;;;;11.50;7.97;;;27.30;1.00;;;;;;4882552;29;20227;-93
2023/07/09 01:09:40;;;;;;;10.52;7.15;;;27.20;1.00;;;;;;4883232;29;20186;-85
2023/07/09 01:12:09;;;;;;;11.43;8.38;;;27.30;1.00;;;;;;4880059;29;20226;-85
2023/07/09 01:14:36;;;;;;;10.98;8.25;;;27.10;1.00;;;;;;4879793;29;20606;-88
2023/07/09 01:17:04;;;;;;;11.75;7.85;;;27.10;1.00;;;;;;4880198;29;20710;-84
2023/07/09 01:19:43;;;;;;;13.80;8.32;;;27.10;1.00;;;;;;4879809;29;20179;-83
2023/07/09 01:22:19;;;;;;;11.65;7.90;;;27.00;1.00;;;;;;4880605;29;20179;-86
2023/07/09 01:24:51;;;;;;;11.27;8.30;;;27.00;1.00;;;;;;4881342;29;20183;-86
2023/07/09 01:27:19;;;;;;;11.10;7.65;;;27.00;1.00;;;;;;4880228;29;20215;-84
2023/07/09 01:29:48;;;;;;;9.65;6.70;;;26.90;1.00;;;;;;4879785;29;20183;-84
2023/07/09 01:32:18;;;;;;;14.00;7.93;;;26.80;1.00;;;;;;4879751;29;20183;-84
2023/07/09 01:34:48;;;;;;;12.35;8.95;;;26.70;1.00;;;;;;4879946;29;20205;-85
2023/07/09 01:37:21;;;;;;;11.85;8.05;;;26.70;1.00;;;;;;4879748;29;20191;-86
2023/07/09 01:39:50;;;;;;;11.98;7.60;;;26.80;1.00;;;;;;4878725;29;20183;-85
2023/07/09 01:42:17;;;;;;;10.43;8.02;;;26.70;1.00;;;;;;4879971;29;20218;-84
2023/07/09 01:44:45;;;;;;;11.30;7.93;;;26.50;1.00;;;;;;4879029;29;20320;-83
2023/07/09 01:47:11;;;;;;;9.00;7.35;;;26.40;1.00;;;;;;4878881;29;20265;-84
2023/07/09 01:49:39;;;;;;;10.18;7.25;;;26.30;1.00;;;;;;4878860;29;20602;-83
2023/07/09 01:52:10;;;;;;;8.93;6.45;;;26.30;1.00;;;;;;4879402;29;20206;-84
2023/07/09 01:54:38;;;;;;;10.23;6.82;;;26.40;1.00;;;;;;4878462;29;20183;-83
2023/07/09 01:57:24;;;;;;;10.27;6.85;;;26.40;1.00;;;;;;4879973;29;20179;-83
2023/07/09 01:59:54;;;;;;;9.05;6.82;;;26.50;1.00;;;;;;4878542;29;20647;-83
2023/07/09 02:02:22;;;;;;;10.05;6.32;;;26.50;1.00;;;;;;4878345;29;20178;-83
2023/07/09 02:04:50;;;;;;;7.60;5.83;;;26.60;1.00;;;;;;4878368;29;20175;-85
2023/07/09 02:07:16;;;;;;;10.77;7.03;;;26.70;1.00;;;;;;4879567;29;20249;-83
2023/07/09 02:09:42;;;;;;;8.32;6.00;;;26.70;1.00;;;;;;4888517;29;20187;-83
2023/07/09 02:12:10;;;;;;;7.60;5.32;;;26.70;1.00;;;;;;4899057;29;20187;-90
2023/07/09 02:14:39;;;;;;;9.45;5.93;;;26.60;1.00;;;;;;4880512;29;20188;-85
2023/07/09 02:17:05;;;;;;;8.45;5.38;;;26.50;1.00;;;;;;4878344;29;20191;-85
2023/07/09 02:19:43;;;;;;;6.65;4.88;;;26.40;1.00;;;;;;4878062;29;20179;-88
2023/07/09 02:22:10;;;;;;;11.73;5.68;;;26.40;1.00;;;;;;4879419;29;20234;-84
2023/07/09 02:24:36;;;;;;;9.57;5.35;;;26.40;1.00;;;;;;4878476;29;20187;-84
2023/07/09 02:27:05;;;;;;;8.50;5.03;;;26.50;1.00;;;;;;4880493;29;20247;-88
2023/07/09 02:29:32;;;;;;;8.00;5.10;;;26.70;1.00;;;;;;4891142;29;20173;-88
2023/07/09 02:32:00;;;;;;;7.07;5.00;;;26.70;1.00;;;;;;4901025;29;20194;-83
2023/07/09 02:34:27;;;;;;;7.18;5.07;;;26.70;1.00;;;;;;4883281;29;20195;-83
2023/07/09 02:36:58;;;;;;;9.82;5.22;;;26.70;1.00;;;;;;4878917;29;20663;-85
2023/07/09 02:39:24;;;;;;;7.38;5.35;;;26.70;1.00;;;;;;4877986;29;20178;-84
2023/07/09 02:41:50;;;;;;;6.95;4.97;;;26.70;1.00;;;;;;4877907;29;20190;-84
2023/07/09 02:44:17;;;;;;;9.55;4.68;;;26.80;1.00;;;;;;4878045;29;20623;-86
2023/07/09 02:46:43;;;;;;;7.93;4.65;;;26.80;1.00;;;;;;4878035;29;20182;-87
2023/07/09 02:49:10;;;;;;;7.15;4.68;;;26.80;1.00;;;;;;4877867;29;20179;-84
2023/07/09 02:51:36;;;;;;;9.25;4.35;;;26.90;1.00;;;;;;4878874;29;20173;-86
2023/07/09 02:54:02;;;;;;;8.85;4.47;;;26.70;1.00;;;;;;4877923;29;20193;-84
2023/07/09 02:56:30;;;;;;;6.47;4.18;;;26.80;1.00;;;;;;4877766;29;20179;-84
2023/07/09 02:58:56;;;;;;;8.32;4.70;;;26.70;1.00;;;;;;4879212;29;20186;-84
2023/07/09 03:01:24;;;;;;;8.82;4.70;;;26.70;1.00;;;;;;4877828;29;20179;-84
2023/07/09 03:03:52;;;;;;;6.07;3.97;;;26.70;1.00;;;;;;4883549;29;20163;-84
2023/07/09 03:06:20;;;;;;;6.88;4.13;;;26.70;1.00;;;;;;4883124;29;20218;-83
2023/07/09 03:08:46;;;;;;;7.03;4.78;;;26.70;1.00;;;;;;4881140;29;20242;-84
2023/07/09 03:11:14;;;;;;;6.50;4.38;;;26.60;1.00;;;;;;4881162;29;20266;-86
2023/07/09 03:13:39;;;;;;;7.05;4.50;;;26.70;1.00;;;;;;4881590;29;20191;-87
2023/07/09 03:16:05;;;;;;;7.00;4.22;;;26.60;1.00;;;;;;4882673;29;20258;-88
2023/07/09 03:18:33;;;;;;;7.03;4.13;;;26.50;1.00;;;;;;4881455;29;20183;-85
2023/07/09 03:20:59;;;;;;;5.80;4.38;;;26.60;1.00;;;;;;4881593;29;20326;-84
2023/07/09 03:23:25;;;;;;;6.60;4.43;;;26.50;1.00;;;;;;4881183;29;20181;-83
2023/07/09 03:25:50;;;;;;;7.00;4.72;;;26.60;1.00;;;;;;4881099;29;20225;-82
2023/07/09 03:28:17;;;;;;;6.93;4.70;;;26.50;1.00;;;;;;4882172;29;20638;-84
2023/07/09 03:30:45;;;;;;;8.07;5.07;;;26.50;1.00;;;;;;4882272;29;20236;-85
2023/07/09 03:33:11;;;;;;;8.57;4.63;;;26.30;1.00;;;;;;4880972;29;20179;-85
2023/07/09 03:35:38;;;;;;;6.88;4.80;;;26.10;1.00;;;;;;4881507;29;20282;-84
2023/07/09 03:38:05;;;;;;;9.43;5.07;;;25.90;1.00;;;;;;4880887;29;20611;-83
2023/07/09 03:40:31;;;;;;;8.60;5.63;;;25.50;1.00;;;;;;4882459;29;20178;-84
2023/07/09 03:42:57;;;;;;;7.43;5.47;;;25.30;1.00;;;;;;4882180;29;20238;-88
2023/07/09 03:45:23;;;;;;;8.10;5.20;;;25.10;1.00;;;;;;4880891;29;20527;-87
2023/07/09 03:47:49;;;;;;;8.10;5.27;;;25.00;1.00;;;;;;4880745;29;20225;-85
2023/07/09 03:50:15;;;;;;;7.67;5.03;;;25.00;1.00;;;;;;4881168;29;20179;-86
2023/07/09 03:52:41;;;;;;;10.37;5.37;;;25.20;1.00;;;;;;4880479;29;20567;-83
2023/07/09 03:55:07;;;;;;;8.30;5.37;;;25.40;1.00;;;;;;4880978;29;20183;-85
2023/07/09 03:57:33;;;;;;;7.47;5.37;;;25.20;1.00;;;;;;4880822;29;20269;-84
2023/07/09 03:59:59;;;;;;;7.30;5.30;;;25.00;1.00;;;;;;4881911;29;20204;-84
2023/07/09 04:02:25;;;;;;;7.87;5.63;;;25.00;1.00;;;;;;4881777;29;20191;-86
2023/07/09 04:04:51;;;;;;;6.67;5.33;;;25.00;1.00;;;;;;4880793;29;20183;-84
2023/07/09 04:07:16;;;;;;;7.67;5.43;;;24.90;1.00;;;;;;4881435;29;20230;-85
2023/07/09 04:09:42;;;;;;;8.20;5.90;;;25.00;1.00;;;;;;4880863;29;20700;-87
2023/07/09 04:12:11;;;;;;;8.23;6.00;;;25.20;1.00;;;;;;4881641;29;20700;-86
2023/07/09 04:14:37;;;;;;;10.47;6.07;;;25.30;1.00;;;;;;4880701;29;20190;-86
2023/07/09 04:17:03;;;;;;;9.67;5.67;;;25.10;1.00;;;;;;4880755;29;20186;-88
2023/07/09 04:19:29;;;;;;;9.23;6.03;;;24.90;1.00;;;;;;4880694;29;20736;-86
2023/07/09 04:21:55;;;;;;;9.27;5.70;;;24.90;1.00;;;;;;4880796;29;20266;-85
2023/07/09 04:24:20;;;;;;;9.97;5.80;;;24.90;1.00;;;;;;4880532;29;20179;-85
2023/07/09 04:26:47;;;;;;;8.93;5.83;;;24.90;1.00;;;;;;4880457;29;20298;-82
2023/07/09 04:29:13;;;;;;;10.90;5.93;;;24.90;1.00;;;;;;4881619;29;20198;-87
2023/07/09 04:31:40;;;;;;;8.07;5.83;;;25.00;1.00;;;;;;4880692;29;20186;-83
2023/07/09 04:34:06;;;;;;;7.83;5.70;;;24.90;1.00;;;;;;4880670;29;20210;-86
2023/07/09 04:36:32;;;;;;;7.53;5.80;;;24.90;1.00;;;;;;4880320;29;20195;-89
2023/07/09 04:38:57;;;;;;;9.30;5.93;;;24.90;1.00;;;;;;4882027;29;20201;-89
2023/07/09 04:41:24;;;;;;;9.07;6.23;;;24.90;1.00;;;;;;4880984;29;20231;-93
2023/07/09 04:43:50;;;;;;;9.90;5.70;;;24.90;1.00;;;;;;4882159;29;20290;-92
2023/07/09 04:46:16;;;;;;;8.67;6.17;;;25.00;1.00;;;;;;4881566;29;20658;-90
2023/07/09 04:48:42;;;;;;;9.13;5.68;;;25.00;1.00;;;;;;4881074;29;20250;-87
2023/07/09 04:51:08;;;;;;;9.90;6.00;;;25.00;1.00;;;;;;4881061;29;20207;-92
2023/07/09 04:53:34;;;;;;;9.07;6.23;;;24.90;1.00;;;;;;4881325;29;20523;-90
2023/07/09 04:56:02;;;;;;;9.90;5.93;;;24.90;1.00;;;;;;4881234;29;20262;-91
2023/07/09 04:58:28;;;;;;;10.10;5.93;;;24.90;1.00;;;;;;4882635;29;20212;-92
2023/07/09 05:00:57;;;;;;;8.97;5.83;;;24.90;1.00;;;;;;4885102;29;20183;-86
2023/07/09 05:03:22;;;;;;;10.13;6.27;;;24.90;1.00;;;;;;4899131;29;20207;-89
2023/07/09 05:05:48;;;;;;;12.70;6.90;;;25.00;1.00;;;;;;4884064;29;20183;-84
2023/07/09 05:08:16;;;;;;;9.67;5.90;;;25.10;1.00;;;;;;4879563;29;20215;-84
2023/07/09 05:10:52;;;;;;;10.57;6.17;;;25.20;1.00;;;;;;4879474;29;20171;-84
2023/07/09 05:13:19;;;;;;;7.50;5.80;;;24.90;1.00;;;;;;4879209;29;20179;-89
2023/07/09 05:15:46;;;;;;;12.60;6.70;;;24.80;1.00;;;;;;4879666;29;20190;-83
2023/07/09 05:18:14;;;;;;;10.03;6.53;;;24.80;1.00;;;;;;4884939;29;20182;-84
2023/07/09 05:20:40;;;;;;;10.33;6.27;;;24.80;1.00;;;;;;4901177;29;20199;-82
2023/07/09 05:23:10;;;;;;;9.67;5.93;;;25.00;1.00;;;;;;4895157;29;20183;-82
2023/07/09 05:25:36;;;;;;;9.53;5.77;;;25.00;1.00;;;;;;4884178;29;20605;-82
2023/07/09 05:28:03;;;;;;;11.53;6.20;;;25.00;1.00;;;;;;4883175;29;20223;-82
2023/07/09 05:30:30;;;;;;;9.57;5.90;;;25.00;1.00;;;;;;4880327;29;20205;-82
2023/07/09 05:32:59;;;;;;;9.63;6.37;;;25.00;1.00;;;;;;4880044;29;20281;-91
2023/07/09 05:35:25;;;;;;;12.40;6.57;;;24.90;1.00;;;;;;4879775;29;20188;-86
2023/07/09 05:37:54;;;;;;;8.60;6.27;;;24.80;1.00;;;;;;4878943;29;20680;-83
2023/07/09 05:40:21;;;;;;;11.40;6.77;;;24.80;1.00;;;;;;4878909;29;20187;-84
2023/07/09 05:42:48;;;;;;;9.10;5.87;;;24.80;1.00;;;;;;4878648;29;20687;-84
2023/07/09 05:45:14;;;;;;;9.37;6.57;;;24.80;1.00;;;;;;4878281;29;20174;-83
2023/07/09 05:47:40;;;;;;;11.10;6.03;;;24.90;1.00;;;;;;4881560;29;20298;-82
2023/07/09 05:50:06;;;;;;;12.00;5.90;;;24.90;1.00;;;;;;4888397;29;20182;-89
2023/07/09 05:52:32;;;;;;;10.13;6.43;;;24.90;1.00;;;;;;4887729;29;20187;-87
2023/07/09 05:54:59;;;;;;;8.77;6.00;;;25.00;1.00;;;;;;4887532;29;20472;-84
2023/07/09 05:57:26;;;;;;;10.03;6.00;;;25.20;1.00;;;;;;4882775;29;20175;-86
2023/07/09 05:59:52;;;;;;;10.20;6.13;;;25.30;1.00;;;;;;4880978;29;20261;-93
2023/07/09 06:02:19;;;;;;;9.43;6.37;;;25.20;1.00;;;;;;4881638;29;20182;-85
2023/07/09 06:04:45;;;;;;;8.70;6.03;;;25.20;1.00;;;;;;4881646;29;20269;-84
2023/07/09 06:07:15;;;;;;;8.43;5.60;;;25.10;1.00;;;;;;4882304;29;20254;-84
2023/07/09 06:09:42;;;;;;;9.73;6.30;;;25.20;1.00;;;;;;4889675;29;20285;-86
2023/07/09 06:12:09;;;;;;;10.97;5.97;;;25.20;1.00;;;;;;4888725;29;20175;-84
2023/07/09 06:14:35;;;;;;;12.40;6.13;;;25.20;1.00;;;;;;4888844;29;20250;-85
2023/07/09 06:17:01;;;;;;;9.23;5.77;;;25.20;1.00;;;;;;4890777;29;20183;-85
2023/07/09 06:19:27;;;;;;;10.80;6.17;;;25.10;1.00;;;;;;4888571;29;20211;-87
2023/07/09 06:21:54;;;;;;;11.80;7.03;;;25.00;1.00;;;;;;4880258;29;20522;-84
2023/07/09 06:24:19;;;;;;;9.33;6.57;;;24.80;1.00;;;;;;4880386;29;20204;-92
2023/07/09 06:26:45;;;;;;;9.75;6.70;;;24.80;1.00;;;;;;4880579;29;20234;-93
2023/07/09 06:29:11;;;;;;;9.10;6.97;;;24.80;1.00;;;;;;4881869;29;20206;-87
2023/07/09 06:31:38;;;;;;;8.20;6.87;;;24.70;1.00;;;;;;4880193;29;20243;-87
2023/07/09 06:34:04;;;;;;;11.03;7.37;;;24.80;1.00;;;;;;4880880;29;20199;-93
2023/07/09 06:36:29;;;;;;;16.10;8.17;;;24.90;1.00;;;;;;4881230;29;20651;-90
2023/07/09 06:38:55;;;;;;;10.30;7.97;;;25.00;1.00;;;;;;4869608;29;20188;-89
2023/07/09 06:41:21;;;;;;;10.63;8.30;;;25.10;1.00;;;;;;4883817;29;20179;-85
2023/07/09 06:43:47;;;;;;;10.93;8.67;;;25.30;1.00;;;;;;4882795;29;20268;-89
2023/07/09 06:46:14;;;;;;;12.17;10.07;;;25.50;1.00;;;;;;4884043;29;20183;-93
2023/07/09 06:48:40;;;;;;;12.68;10.73;;;25.60;1.00;;;;;;4883104;29;20236;-89
2023/07/09 06:51:05;;;;;;;14.52;12.05;;;25.70;1.00;;;;;;4884033;29;20167;-85
2023/07/09 06:53:32;;;;;;;15.73;12.60;;;25.90;1.00;;;;;;4883022;29;20668;-91
2023/07/09 06:56:01;;;;;;;17.90;15.47;;;25.90;1.00;;;;;;4883359;29;20185;-93
2023/07/09 06:58:28;;;;;;;17.27;14.87;;;25.60;1.00;;;;;;4883356;29;20183;-86
2023/07/09 07:00:55;;;;;;;18.63;13.97;;;25.50;1.00;;;;;;4883728;29;20170;-87
2023/07/09 07:03:23;;;;;;;16.83;14.97;;;25.40;1.00;;;;;;4884416;29;20183;-94
2023/07/09 07:05:50;;;;;;;18.13;15.27;;;25.40;1.00;;;;;;4889999;29;20703;-86
2023/07/09 07:08:18;;;;;;;18.10;15.87;;;25.40;1.00;;;;;;4886429;29;20218;-91
2023/07/09 07:11:05;;;;;;;18.07;15.70;;;25.50;1.00;;;;;;4881047;29;20191;-86
2023/07/09 07:13:34;;;;;;;17.03;15.23;;;25.70;1.00;;;;;;4882292;29;20185;-91
2023/07/09 07:16:07;;;;;;;20.80;17.37;;;25.80;1.00;;;;;;4880667;29;20179;-90
2023/07/09 07:18:34;;;;;;;18.57;16.53;;;25.70;1.00;;;;;;4881085;29;20179;-82
2023/07/09 07:21:00;;;;;;;19.27;16.93;;;25.90;1.00;;;;;;4882416;29;20172;-83
2023/07/09 07:23:26;;;;;;;24.70;20.33;;;26.00;1.00;;;;;;4865288;29;20658;-83
2023/07/09 07:25:52;;;;;;;23.53;21.10;;;26.20;1.00;;;;;;4880903;29;20202;-87
2023/07/09 07:28:18;;;;;;;32.77;29.27;;;26.40;1.00;;;;;;4882305;29;20585;-85
2023/07/09 07:30:43;;;;;;;33.47;29.70;;;26.20;1.00;;;;;;4882946;29;20176;-88
2023/07/09 07:33:09;;;;;;;31.87;28.57;;;26.00;1.00;;;;;;4882746;29;20623;-86
2023/07/09 07:35:36;;;;;;;32.87;28.30;;;25.90;1.00;;;;;;4882900;29;20262;-92
2023/07/09 07:38:02;;;;;;;33.53;30.13;;;26.00;1.00;;;;;;4845772;29;1152755;-93
2023/07/09 07:40:28;;;;;;;34.77;31.17;;;25.90;1.00;;;;;;4883301;29;20535;-92
2023/07/09 07:42:53;;;;;;;34.63;30.10;;;25.80;1.00;;;;;;4881885;29;20312;-89
2023/07/09 07:45:21;;;;;;;33.17;29.03;;;25.60;1.00;;;;;;4881679;29;20186;-89
2023/07/09 07:47:47;;;;;;;33.87;30.07;;;25.70;1.00;;;;;;4883283;29;20202;-87
2023/07/09 07:50:13;;;;;;;38.53;32.37;;;25.70;1.00;;;;;;4900692;29;20200;-84
2023/07/09 07:52:39;;;;;;;34.63;30.93;;;25.80;1.00;;;;;;4894433;29;20191;-84
2023/07/09 07:55:08;;;;;;;35.67;31.70;;;25.90;1.00;;;;;;4890397;29;20221;-82
2023/07/09 07:57:36;;;;;;;36.10;32.27;;;25.70;1.00;;;;;;4888906;29;20203;-82
2023/07/09 08:00:21;;;;;;;34.63;30.93;;;25.80;1.00;;;;;;4888947;29;20491;-87
2023/07/09 08:02:47;;;;;;;33.30;29.53;;;25.70;1.00;;;;;;4885129;29;20179;-92
2023/07/09 08:05:16;;;;;;;31.80;28.03;;;25.70;1.00;;;;;;4887187;29;20278;-93
2023/07/09 08:07:45;;;;;;;33.27;29.03;;;25.80;1.00;;;;;;4883230;29;20682;-94
2023/07/09 08:10:16;;;;;;;32.13;28.13;;;25.90;1.00;;;;;;4904619;29;20166;-83
2023/07/09 08:12:42;;;;;;;34.13;29.30;;;26.00;1.00;;;;;;4900234;29;20235;-83
2023/07/09 08:15:08;;;;;;;33.28;25.02;;;26.00;1.00;;;;;;4895571;29;20174;-84
2023/07/09 08:17:36;;;;;;;27.30;24.50;;;26.20;1.00;;;;;;4886852;29;20252;-83
2023/07/09 08:20:12;;;;;;;27.07;23.07;;;26.30;1.00;;;;;;4881626;29;20187;-92
2023/07/09 08:22:38;;;;;;;29.30;25.00;;;26.40;1.00;;;;;;4881719;29;20197;-86
2023/07/09 08:25:04;;;;;;;27.45;23.83;;;26.40;1.00;;;;;;4881897;29;20175;-89
2023/07/09 08:27:29;;;;;;;29.20;24.07;;;26.40;1.00;;;;;;4881268;29;20202;-87
2023/07/09 08:29:55;;;;;;;28.50;23.57;;;26.30;1.00;;;;;;4882321;29;20190;-87
2023/07/09 08:32:22;;;;;;;27.07;22.60;;;26.30;1.00;;;;;;4882345;29;20182;-86
2023/07/09 08:34:48;;;;;;;27.37;24.40;;;26.30;1.00;;;;;;4882256;29;20659;-88
2023/07/09 08:37:14;;;;;;;30.35;25.45;;;26.30;1.00;;;;;;4882415;29;20206;-87
2023/07/09 08:39:39;;;;;;;29.10;24.87;;;26.30;1.00;;;;;;4884985;29;20187;-93
2023/07/09 08:42:25;;;;;;;28.58;25.48;;;26.30;1.00;;;;;;4883062;29;20206;-85
2023/07/09 08:45:12;;;;;;;32.58;24.90;;;26.30;1.00;;;;;;4880895;29;20183;-91
2023/07/09 08:48:24;;;;;;;26.38;23.75;;;26.40;1.00;;;;;;4881153;29;20607;-88
2023/07/09 08:50:57;;;;;;;28.00;23.98;;;26.40;1.00;;;;;;4900974;29;20659;-87
2023/07/09 08:53:36;;;;;;;30.03;25.93;;;26.50;1.00;;;;;;4881140;29;20168;-84
2023/07/09 08:56:03;;;;;;;26.67;23.98;;;26.70;1.00;;;;;;4882107;29;20186;-89
2023/07/09 08:58:30;;;;;;;28.48;25.17;;;26.80;1.00;;;;;;4880801;29;20186;-84
2023/07/09 09:01:06;;;;;;;26.33;23.33;;;27.00;1.00;;;;;;4878732;29;20175;-84
2023/07/09 09:03:43;;;;;;;28.65;25.67;;;27.00;1.00;;;;;;4879777;29;20208;-92
2023/07/09 09:06:17;;;;;;;30.33;26.70;;;27.20;1.00;;;;;;4879990;29;20178;-86
2023/07/09 09:08:57;;;;;;;26.60;23.73;;;27.40;1.00;;;;;;4880644;29;20290;-86
2023/07/09 09:11:39;;;;;;;29.23;24.30;;;27.70;1.00;;;;;;4881240;29;20238;-85
2023/07/09 09:14:19;;;;;;;27.30;23.67;;;27.70;99.90;;;;;;4879465;29;20552;-89
2023/07/09 09:16:46;;;;;;;27.23;24.00;;;27.90;99.90;;;;;;4879488;29;20572;-86
2023/07/09 09:19:53;;;;;;;33.03;22.67;;;27.60;99.90;;;;;;4878927;29;20179;-87
2023/07/09 09:22:50;;;;;;;26.20;23.27;;;27.80;99.90;;;;;;4885194;29;20265;-85
2023/07/09 09:25:29;;;;;;;27.35;22.83;;;27.60;99.90;;;;;;4885384;29;20183;-85
2023/07/09 09:27:55;;;;;;;28.10;25.17;;;27.80;99.90;;;;;;4880933;29;20202;-85
2023/07/09 09:30:23;;;;;;;33.88;26.85;;;27.90;99.90;;;;;;4879517;29;20878;-85
2023/07/09 09:32:59;;;;;;;29.08;25.70;;;28.00;99.90;;;;;;4879353;29;20185;-88
2023/07/09 09:35:38;;;;;;;26.30;22.83;;;28.00;99.90;;;;;;4864548;29;20247;-83
2023/07/09 09:38:19;;;;;;;27.85;24.38;;;28.20;99.90;;;;;;4879517;29;20187;-85
2023/07/09 09:40:45;;;;;;;30.77;26.70;;;28.20;99.90;;;;;;4880330;29;20263;-87
2023/07/09 09:43:22;;;;;;;29.10;26.05;;;28.00;99.90;;;;;;4879602;29;20727;-88
2023/07/09 09:45:49;;;;;;;28.85;23.92;;;27.90;1.00;;;;;;4878767;29;20182;-87
2023/07/09 09:48:20;;;;;;;25.77;22.67;;;28.10;1.00;;;;;;4879077;29;20214;-85
2023/07/09 09:50:47;;;;;;;25.40;22.77;;;28.30;99.90;;;;;;4883614;29;20179;-85
2023/07/09 09:53:38;;;;;;;27.00;24.17;;;28.10;99.90;;;;;;4882620;29;20381;-85
2023/07/09 09:56:12;;;;;;;27.98;23.38;;;27.80;1.00;;;;;;4880788;29;20167;-87
2023/07/09 09:59:01;;;;;;;26.75;24.02;;;27.90;1.00;;;;;;4881996;29;20163;-86
2023/07/09 10:01:37;;;;;;;25.33;22.63;;;27.90;1.00;;;;;;4878709;29;20183;-85
2023/07/09 10:04:04;;;;;;;23.75;20.33;;;27.90;1.00;;;;;;4879381;29;20166;-89
2023/07/09 10:06:40;;;;;;;24.05;19.92;;;27.60;1.00;;;;;;4880125;29;20261;-85
2023/07/09 10:09:47;;;;;;;21.52;19.25;;;27.70;1.00;;;;;;4878091;29;20222;-87
2023/07/09 10:12:51;;;;;;;20.52;18.35;;;27.80;99.90;;;;;;4914800;29;20188;-86
2023/07/09 10:15:39;;;;;;;19.95;17.85;;;27.60;1.00;;;;;;4915214;29;20181;-87
2023/07/09 10:18:23;;;;;;;19.58;16.70;;;27.60;1.00;;;;;;4881845;29;20198;-90
2023/07/09 10:21:08;;;;;;;19.53;15.73;;;27.60;1.00;;;;;;4878505;29;20198;-86
2023/07/09 10:23:59;;;;;;;18.52;16.02;;;27.70;1.00;;;;;;4878215;29;20230;-85
2023/07/09 10:26:43;;;;;;;18.17;15.30;;;27.70;1.00;;;;;;4878575;29;20179;-86
2023/07/09 10:29:47;;;;;;;17.00;13.38;;;27.80;1.00;;;;;;4878233;29;20225;-84
2023/07/09 10:32:34;;;;;;;17.55;14.48;;;27.80;1.00;;;;;;4878341;29;20192;-86
2023/07/09 10:35:27;;;;;;;17.48;15.63;;;27.90;1.00;;;;;;4879582;29;20334;-87
2023/07/09 10:38:18;;;;;;;15.10;13.50;;;27.80;1.00;;;;;;4878079;29;20562;-88
2023/07/09 10:40:49;;;;;;;18.27;13.17;;;27.50;1.00;;;;;;4879728;29;20232;-86
2023/07/09 10:43:38;;;;;;;15.77;13.93;;;27.50;1.00;;;;;;4899818;29;20189;-83
2023/07/09 10:46:18;;;;;;;16.92;14.65;;;27.50;1.00;;;;;;4887652;29;20179;-86
2023/07/09 10:48:49;;;;;;;17.50;15.75;;;27.40;1.00;;;;;;4882378;29;20224;-85
2023/07/09 10:51:36;;;;;;;17.77;15.87;;;27.20;1.00;;;;;;4879685;29;20253;-84
2023/07/09 10:54:25;;;;;;;16.30;12.70;;;27.10;1.00;;;;;;4878927;29;20334;-90
2023/07/09 10:56:59;;;;;;;14.02;10.50;;;27.10;1.00;;;;;;4878786;29;20191;-85
2023/07/09 10:59:30;;;;;;;14.73;11.93;;;27.40;1.00;;;;;;4880063;29;20533;-83
2023/07/09 11:02:08;;;;;;;17.63;11.68;;;27.50;1.00;;;;;;4889568;29;20193;-83
2023/07/09 11:04:47;;;;;;;12.63;8.73;;;27.50;1.00;;;;;;4900337;29;20179;-87
2023/07/09 11:07:18;;;;;;;12.50;8.88;;;27.50;1.00;;;;;;4885476;29;20551;-85
2023/07/09 11:09:49;;;;;;;8.75;7.43;;;27.30;1.00;;;;;;4885578;29;20195;-85
2023/07/09 11:12:55;;;;;;;8.70;6.78;;;27.40;1.00;;;;;;4881252;29;20186;-89
2023/07/09 11:15:27;;;;;;;11.02;6.25;;;27.50;1.00;;;;;;4886674;29;20273;-85
2023/07/09 11:17:53;;;;;;;10.02;6.55;;;27.60;1.00;;;;;;4881847;29;20523;-86
2023/07/09 11:20:25;;;;;;;8.00;5.18;;;27.50;1.00;;;;;;4884526;29;20245;-84
2023/07/09 11:22:54;;;;;;;6.47;4.65;;;27.40;1.00;;;;;;4882802;29;20583;-83
2023/07/09 11:25:29;;;;;;;7.05;4.97;;;27.40;1.00;;;;;;4885463;29;20171;-83
2023/07/09 11:28:03;;;;;;;7.28;5.35;;;27.40;1.00;;;;;;4887058;29;20687;-86
2023/07/09 11:30:32;;;;;;;7.25;4.90;;;27.30;1.00;;;;;;4883690;29;20317;-85
2023/07/09 11:33:04;;;;;;;6.93;5.00;;;27.20;1.00;;;;;;4882574;29;20651;-86
2023/07/09 11:35:46;;;;;;;7.78;5.00;;;27.10;1.00;;;;;;4883258;29;20186;-84
2023/07/09 11:38:23;;;;;;;6.95;4.93;;;27.10;1.00;;;;;;4883574;29;20179;-88
2023/07/09 11:40:52;;;;;;;8.03;5.60;;;27.10;1.00;;;;;;4881811;29;20186;-85
2023/07/09 11:43:35;;;;;;;8.77;5.03;;;27.20;1.00;;;;;;4882109;29;20218;-87
2023/07/09 11:46:23;;;;;;;7.23;5.03;;;27.10;1.00;;;;;;4881724;29;20252;-87
2023/07/09 11:48:50;;;;;;;6.70;4.50;;;27.00;1.00;;;;;;4881302;29;20229;-85
2023/07/09 11:51:34;;;;;;;6.93;4.40;;;26.80;1.00;;;;;;4881483;29;20179;-84
2023/07/09 11:54:00;;;;;;;7.60;5.57;;;26.80;1.00;;;;;;4885578;29;20239;-85
2023/07/09 11:56:26;;;;;;;8.82;5.00;;;26.70;1.00;;;;;;4883801;29;20532;-91
2023/07/09 11:58:55;;;;;;;8.27;4.90;;;26.70;1.00;;;;;;4882567;29;20182;-85
2023/07/09 12:01:46;;;;;;;7.07;5.30;;;26.70;1.00;;;;;;4882914;29;20197;-85
2023/07/09 12:04:18;;;;;;;9.77;5.90;;;26.80;1.00;;;;;;4881485;29;20277;-86
2023/07/09 12:06:45;;;;;;;9.18;5.50;;;26.80;1.00;;;;;;4882417;29;20179;-86
2023/07/09 12:09:19;;;;;;;7.68;4.75;;;26.80;1.00;;;;;;4880971;29;20238;-86
2023/07/09 12:11:50;;;;;;;8.85;4.95;;;26.80;1.00;;;;;;4881040;29;20189;-86
2023/07/09 12:14:21;;;;;;;9.35;5.13;;;26.80;1.00;;;;;;4882100;29;20268;-84
2023/07/09 12:16:53;;;;;;;9.13;4.90;;;26.90;1.00;;;;;;4882442;29;20170;-85
2023/07/09 12:19:22;;;;;;;10.60;5.00;;;26.90;1.00;;;;;;4880121;29;20183;-84
2023/07/09 12:21:53;;;;;;;11.13;5.97;;;26.80;1.00;;;;;;4880482;29;20189;-82
2023/07/09 12:24:28;;;;;;;8.93;5.50;;;26.70;1.00;;;;;;4879642;29;20208;-84
2023/07/09 12:26:58;;;;;;;11.23;6.07;;;26.50;1.00;;;;;;4882206;29;20182;-84
2023/07/09 12:29:29;;;;;;;14.83;6.80;;;26.00;1.00;;;;;;4884044;29;20213;-83
2023/07/09 12:31:59;;;;;;;10.23;6.50;;;25.70;1.00;;;;;;4884563;29;20184;-82
2023/07/09 12:34:25;;;;;;;10.27;6.93;;;25.50;1.00;;;;;;4884079;29;20605;-86
2023/07/09 12:36:53;;;;;;;9.80;7.03;;;25.40;1.00;;;;;;4882082;29;20285;-89
2023/07/09 12:39:25;;;;;;;10.70;8.07;;;25.10;1.00;;;;;;4884514;29;20198;-85
2023/07/09 12:41:55;;;;;;;9.10;7.00;;;24.80;10.70;;;;;;4882017;29;20179;-86
2023/07/09 12:44:24;;;;;;;10.57;7.30;;;24.90;11.40;;;;;;4880090;29;20275;-85
2023/07/09 12:46:55;;;;;;;10.80;7.07;;;24.90;21.00;;;;;;4881957;29;20250;-87
2023/07/09 12:49:24;;;;;;;9.00;7.17;;;25.10;13.20;;;;;;4880329;29;20214;-88
2023/07/09 12:51:51;;;;;;;12.40;8.07;;;25.20;7.30;;;;;;4880671;29;20175;-86
2023/07/09 12:54:23;;;;;;;10.10;7.63;;;24.90;11.40;;;;;;4879797;29;20238;-86
2023/07/09 12:56:54;;;;;;;10.77;7.73;;;24.70;19.10;;;;;;4880371;29;20179;-85
2023/07/09 12:59:27;;;;;;;11.10;7.50;;;24.40;27.00;;;;;;4879655;29;20240;-85
2023/07/09 13:02:02;;;;;;;9.13;7.53;;;24.40;34.30;;;;;;4882196;29;20171;-84
2023/07/09 13:04:32;;;;;;;10.20;7.93;;;24.20;31.90;;;;;;4880781;29;20175;-85